Time;durP1;ratioP1;P1;durP2;ratioP2;P2;SDS_P1;SDS_P2;PMS_P1;PMS_P2;Temp;Humidity;BMP_temperature;BMP_pressure;BME280_temperature;BME280_humidity;BME280_pressure;Samples;Min_cycle;Max_cycle;Signal;HPM_P1;HPM_P2
2022/03/20 00:00:43;;;;;;;43.50;19.63;;;;;;;;;;5115866;28;20812;-58
2022/03/20 00:03:12;;;;;;;34.00;19.10;;;;;;;;;;5115838;28;20401;-54
2022/03/20 00:05:39;;;;;;;38.07;19.60;;;;;;;;;;5115944;28;20424;-56
2022/03/20 00:08:09;;;;;;;36.80;19.57;;;;;;;;;;5115826;28;20910;-55
2022/03/20 00:10:40;;;;;;;36.37;19.43;;;;;;;;;;5115698;28;20498;-58
2022/03/20 00:13:08;;;;;;;36.47;19.77;;;;;;;;;;5115752;28;20408;-56
2022/03/20 00:15:40;;;;;;;37.50;20.00;;;;;;;;;;5115750;28;20412;-57
2022/03/20 00:18:06;;;;;;;36.60;20.63;;;;;;;;;;5115514;28;20405;-57
2022/03/20 00:20:36;;;;;;;38.33;19.67;;;;;;;;;;5115825;28;20763;-54
2022/03/20 00:23:04;;;;;;;36.33;20.90;;;;;;;;;;5114455;28;20397;-54
2022/03/20 00:25:32;;;;;;;36.10;19.53;;;;;;;;;;5097677;28;20475;-53
2022/03/20 00:27:58;;;;;;;34.37;19.67;;;;;;;;;;5097193;28;20413;-56
2022/03/20 00:30:24;;;;;;;35.20;21.40;;;;;;;;;;5115404;28;20514;-54
2022/03/20 00:32:50;;;;;;;43.77;20.37;;;;;;;;;;5115434;28;20401;-56
2022/03/20 00:35:16;;;;;;;39.50;20.23;;;;;;;;;;5115315;28;20551;-52
2022/03/20 00:37:42;;;;;;;38.83;20.07;;;;;;;;;;5115132;28;20507;-53
2022/03/20 00:40:08;;;;;;;36.87;20.17;;;;;;;;;;5115281;28;20472;-54
2022/03/20 00:42:34;;;;;;;38.03;20.80;;;;;;;;;;5096983;28;20846;-53
2022/03/20 00:45:00;;;;;;;42.67;21.50;;;;;;;;;;5115232;28;20424;-54
2022/03/20 00:47:26;;;;;;;36.00;19.80;;;;;;;;;;5115387;28;20905;-55
2022/03/20 00:49:53;;;;;;;38.73;19.70;;;;;;;;;;5115087;28;20455;-54
2022/03/20 00:52:19;;;;;;;36.80;20.40;;;;;;;;;;5114926;28;20432;-56
2022/03/20 00:54:48;;;;;;;43.60;20.50;;;;;;;;;;5114943;28;20484;-56
2022/03/20 00:57:14;;;;;;;40.50;21.30;;;;;;;;;;5114728;28;20446;-58
2022/03/20 00:59:40;;;;;;;38.00;19.90;;;;;;;;;;5114817;28;20400;-58
2022/03/20 01:02:07;;;;;;;42.13;22.00;;;;;;;;;;5096587;28;20414;-59
2022/03/20 01:04:33;;;;;;;35.97;20.10;;;;;;;;;;5114611;28;20807;-56
2022/03/20 01:07:01;;;;;;;36.93;20.67;;;;;;;;;;5114631;28;20404;-56
2022/03/20 01:09:27;;;;;;;39.40;20.30;;;;;;;;;;5114363;28;20462;-56
2022/03/20 01:11:53;;;;;;;43.30;21.20;;;;;;;;;;5114545;28;20413;-55
2022/03/20 01:14:20;;;;;;;47.80;20.73;;;;;;;;;;5114369;28;20397;-56
2022/03/20 01:16:48;;;;;;;41.47;20.20;;;;;;;;;;5114405;28;20901;-55
2022/03/20 01:19:15;;;;;;;38.67;20.83;;;;;;;;;;5114274;28;20448;-53
2022/03/20 01:21:42;;;;;;;40.93;21.53;;;;;;;;;;5114289;28;20439;-58
2022/03/20 01:24:09;;;;;;;39.77;20.67;;;;;;;;;;5114465;28;20415;-60
2022/03/20 01:26:35;;;;;;;38.20;20.83;;;;;;;;;;5114340;28;20401;-61
2022/03/20 01:29:02;;;;;;;40.97;21.13;;;;;;;;;;5114133;28;20405;-59
2022/03/20 01:31:28;;;;;;;38.40;21.27;;;;;;;;;;5095802;28;20560;-59
2022/03/20 01:33:55;;;;;;;42.80;22.17;;;;;;;;;;5113915;28;20404;-59
2022/03/20 01:36:21;;;;;;;57.07;20.40;;;;;;;;;;5114191;28;20416;-59
2022/03/20 01:38:47;;;;;;;43.23;20.53;;;;;;;;;;5114053;28;20458;-57
2022/03/20 01:41:13;;;;;;;38.90;20.10;;;;;;;;;;5114202;28;20393;-54
2022/03/20 01:43:48;;;;;;;42.30;19.63;;;;;;;;;;5095752;28;20436;-52
2022/03/20 01:46:14;;;;;;;40.87;20.60;;;;;;;;;;5114107;28;20474;-55
2022/03/20 01:48:43;;;;;;;35.70;19.77;;;;;;;;;;5095769;28;20423;-58
2022/03/20 01:51:12;;;;;;;39.50;19.60;;;;;;;;;;5113818;28;20465;-54
2022/03/20 01:53:38;;;;;;;37.23;20.97;;;;;;;;;;5114217;28;20989;-54
2022/03/20 01:56:05;;;;;;;38.97;19.87;;;;;;;;;;5114013;28;20442;-54
2022/03/20 01:58:32;;;;;;;36.50;19.40;;;;;;;;;;5113979;28;20828;-58
2022/03/20 02:00:58;;;;;;;38.80;20.40;;;;;;;;;;5095600;28;20773;-52
2022/03/20 02:03:24;;;;;;;40.33;21.93;;;;;;;;;;5095329;28;20436;-55
2022/03/20 02:05:50;;;;;;;42.60;20.50;;;;;;;;;;5113674;28;20455;-54
2022/03/20 02:08:16;;;;;;;41.60;21.80;;;;;;;;;;5113538;28;20785;-57
2022/03/20 02:10:43;;;;;;;47.40;21.67;;;;;;;;;;5095155;28;20961;-53
2022/03/20 02:13:09;;;;;;;40.60;21.47;;;;;;;;;;5095207;28;20412;-54
2022/03/20 02:15:39;;;;;;;49.90;21.67;;;;;;;;;;5095427;28;20948;-53
2022/03/20 02:18:07;;;;;;;39.00;20.20;;;;;;;;;;5095226;28;20916;-54
2022/03/20 02:20:33;;;;;;;40.63;21.03;;;;;;;;;;5095471;28;20909;-53
2022/03/20 02:23:00;;;;;;;45.50;21.80;;;;;;;;;;5113405;28;20412;-54
2022/03/20 02:25:26;;;;;;;44.00;22.13;;;;;;;;;;5113370;28;20435;-53
2022/03/20 02:27:52;;;;;;;41.83;19.50;;;;;;;;;;5113380;28;20428;-53
2022/03/20 02:30:18;;;;;;;37.73;19.37;;;;;;;;;;5113356;28;20471;-54
2022/03/20 02:32:46;;;;;;;38.13;18.80;;;;;;;;;;5113181;28;20411;-55
2022/03/20 02:35:14;;;;;;;38.10;20.97;;;;;;;;;;5095244;28;20409;-51
2022/03/20 02:37:43;;;;;;;39.23;20.87;;;;;;;;;;5094921;28;20417;-53
2022/03/20 02:40:11;;;;;;;44.10;20.67;;;;;;;;;;5113252;28;20408;-54
2022/03/20 02:42:37;;;;;;;43.20;21.50;;;;;;;;;;5113344;28;20417;-54
2022/03/20 02:45:11;;;;;;;38.27;21.03;;;;;;;;;;5112829;28;20427;-57
2022/03/20 02:47:56;;;;;;;36.27;20.17;;;;;;;;;;5113282;28;20440;-54
2022/03/20 02:50:24;;;;;;;39.87;21.10;;;;;;;;;;5113052;28;20458;-54
2022/03/20 02:52:51;;;;;;;45.70;20.33;;;;;;;;;;5113030;28;20413;-57
2022/03/20 02:55:21;;;;;;;35.70;20.20;;;;;;;;;;5113120;28;20401;-55
2022/03/20 02:57:47;;;;;;;40.10;20.80;;;;;;;;;;5094815;28;20792;-55
2022/03/20 03:00:14;;;;;;;42.43;20.90;;;;;;;;;;5094748;28;20412;-56
2022/03/20 03:02:45;;;;;;;41.97;21.43;;;;;;;;;;5112824;28;20409;-57
2022/03/20 03:05:18;;;;;;;41.47;20.03;;;;;;;;;;5112862;28;20397;-57
2022/03/20 03:13:15;;;;;;;38.67;20.70;;;;;;;;;;5113191;28;20520;-54
2022/03/20 03:15:41;;;;;;;41.70;20.07;;;;;;;;;;5094730;28;20469;-53
2022/03/20 03:18:07;;;;;;;38.50;20.17;;;;;;;;;;5094472;28;20404;-56
2022/03/20 03:20:33;;;;;;;36.00;19.10;;;;;;;;;;5112851;28;20409;-55
2022/03/20 03:23:00;;;;;;;42.23;20.77;;;;;;;;;;5112812;28;20397;-57
2022/03/20 03:25:26;;;;;;;42.73;21.67;;;;;;;;;;5112833;28;20469;-55
2022/03/20 03:27:52;;;;;;;34.80;19.23;;;;;;;;;;5112854;28;20400;-56
2022/03/20 03:30:19;;;;;;;41.33;20.70;;;;;;;;;;5094449;28;20464;-55
2022/03/20 03:32:45;;;;;;;44.20;21.80;;;;;;;;;;5112656;28;20397;-53
2022/03/20 03:37:57;;;;;;;39.37;19.97;;;;;;;;;;5112848;28;20411;-52
2022/03/20 03:40:23;;;;;;;41.63;19.37;;;;;;;;;;5112571;28;20408;-57
2022/03/20 03:42:49;;;;;;;36.77;19.30;;;;;;;;;;5112542;28;20405;-54
2022/03/20 03:45:15;;;;;;;42.40;19.90;;;;;;;;;;5112436;28;20400;-54
2022/03/20 03:47:41;;;;;;;38.00;20.83;;;;;;;;;;5112529;28;20495;-53
2022/03/20 03:50:08;;;;;;;41.97;20.87;;;;;;;;;;5112583;28;20452;-54
2022/03/20 03:52:38;;;;;;;39.03;20.60;;;;;;;;;;5112527;28;20417;-58
2022/03/20 03:55:04;;;;;;;37.37;20.37;;;;;;;;;;5112503;28;20458;-56
2022/03/20 03:57:31;;;;;;;41.20;20.37;;;;;;;;;;5112783;28;20758;-54
2022/03/20 03:59:57;;;;;;;44.97;21.40;;;;;;;;;;5116038;28;20413;-54
2022/03/20 04:02:23;;;;;;;38.87;20.70;;;;;;;;;;5115992;28;20466;-54
2022/03/20 04:04:49;;;;;;;40.50;21.17;;;;;;;;;;5115963;28;20470;-52
2022/03/20 04:07:18;;;;;;;39.37;20.40;;;;;;;;;;5115917;28;20412;-56
2022/03/20 04:09:47;;;;;;;40.90;20.53;;;;;;;;;;5115745;28;20522;-55
2022/03/20 04:12:14;;;;;;;37.20;20.17;;;;;;;;;;5115700;28;20405;-57
2022/03/20 04:14:43;;;;;;;44.17;20.60;;;;;;;;;;5115651;28;20397;-54
2022/03/20 04:17:10;;;;;;;37.80;21.03;;;;;;;;;;5115718;28;20754;-55
2022/03/20 04:19:36;;;;;;;39.60;20.47;;;;;;;;;;5115603;28;20444;-55
2022/03/20 04:22:02;;;;;;;43.67;20.17;;;;;;;;;;5115496;28;20413;-52
2022/03/20 04:24:28;;;;;;;36.47;20.30;;;;;;;;;;5115490;28;20733;-54
2022/03/20 04:26:55;;;;;;;37.90;20.17;;;;;;;;;;5115418;28;20405;-54
2022/03/20 04:29:21;;;;;;;37.83;20.63;;;;;;;;;;5096898;28;20409;-53
2022/03/20 04:31:49;;;;;;;37.97;20.77;;;;;;;;;;5115336;28;20413;-54
2022/03/20 04:34:18;;;;;;;39.73;19.43;;;;;;;;;;5115367;28;20409;-54
2022/03/20 04:36:45;;;;;;;40.83;20.50;;;;;;;;;;5115102;28;20417;-55
2022/03/20 04:39:11;;;;;;;40.67;19.60;;;;;;;;;;5096957;28;20448;-54
2022/03/20 04:41:37;;;;;;;39.80;20.17;;;;;;;;;;5115283;28;20502;-54
2022/03/20 04:44:03;;;;;;;39.77;19.97;;;;;;;;;;5096443;28;20760;-53
2022/03/20 04:46:29;;;;;;;40.50;20.47;;;;;;;;;;5115041;28;20555;-54
2022/03/20 04:59:53;;;;;;;50.23;20.73;;;;;;;;;;5115154;28;20427;-53
2022/03/20 05:02:20;;;;;;;38.97;20.17;;;;;;;;;;5114677;28;20397;-56
2022/03/20 05:04:50;;;;;;;41.13;21.23;;;;;;;;;;5114724;28;20439;-56
2022/03/20 05:07:15;;;;;;;43.27;20.97;;;;;;;;;;5114604;28;20389;-54
2022/03/20 05:15:11;;;;;;;45.07;21.30;;;;;;;;;;5114449;28;20404;-54
2022/03/20 05:17:37;;;;;;;45.83;21.03;;;;;;;;;;5114390;28;20766;-54
2022/03/20 05:20:04;;;;;;;36.07;20.60;;;;;;;;;;5114266;28;20582;-55
2022/03/20 05:22:32;;;;;;;39.30;20.43;;;;;;;;;;5114249;28;20489;-55
2022/03/20 05:24:58;;;;;;;41.60;21.07;;;;;;;;;;5114267;28;20409;-55
2022/03/20 05:27:24;;;;;;;42.30;21.10;;;;;;;;;;5114221;28;20401;-54
2022/03/20 05:29:50;;;;;;;41.43;21.13;;;;;;;;;;5114021;28;20480;-51
2022/03/20 05:32:16;;;;;;;36.20;19.67;;;;;;;;;;5114257;28;20412;-55
2022/03/20 05:34:42;;;;;;;42.80;21.90;;;;;;;;;;5096047;28;20496;-54
2022/03/20 05:37:08;;;;;;;40.63;20.47;;;;;;;;;;5114113;28;20444;-55
2022/03/20 05:39:35;;;;;;;37.87;20.20;;;;;;;;;;5114147;28;20886;-54
2022/03/20 05:42:01;;;;;;;42.97;21.10;;;;;;;;;;5113990;28;20408;-52
2022/03/20 05:44:27;;;;;;;37.87;20.33;;;;;;;;;;5095678;28;20412;-55
2022/03/20 05:46:54;;;;;;;36.27;19.80;;;;;;;;;;5114008;28;20480;-54
2022/03/20 05:49:21;;;;;;;39.50;20.53;;;;;;;;;;5114155;28;20769;-53
2022/03/20 05:51:47;;;;;;;41.67;19.63;;;;;;;;;;5113743;28;20786;-53
2022/03/20 05:54:15;;;;;;;39.80;20.17;;;;;;;;;;5113786;28;20405;-55
2022/03/20 05:59:25;;;;;;;38.30;19.30;;;;;;;;;;5113958;28;20418;-59
2022/03/20 06:01:51;;;;;;;38.27;19.53;;;;;;;;;;5113761;28;20571;-55
2022/03/20 06:04:18;;;;;;;40.47;20.77;;;;;;;;;;5113540;28;20496;-55
2022/03/20 06:06:44;;;;;;;39.50;19.57;;;;;;;;;;5113588;28;20767;-55
2022/03/20 06:09:10;;;;;;;43.77;20.97;;;;;;;;;;5113513;28;20430;-57
2022/03/20 06:11:36;;;;;;;37.23;19.53;;;;;;;;;;5113576;28;20476;-53
2022/03/20 06:14:03;;;;;;;40.03;21.10;;;;;;;;;;5113331;28;20405;-54
2022/03/20 06:16:29;;;;;;;38.43;18.70;;;;;;;;;;5113285;28;20417;-56
2022/03/20 06:18:55;;;;;;;39.80;20.40;;;;;;;;;;5113194;28;20456;-55
2022/03/20 06:21:22;;;;;;;36.53;20.30;;;;;;;;;;5112480;28;20473;-54
2022/03/20 06:23:49;;;;;;;40.50;20.50;;;;;;;;;;5113211;28;20488;-56
2022/03/20 06:26:16;;;;;;;35.40;20.80;;;;;;;;;;5094977;28;20444;-55
2022/03/20 06:28:43;;;;;;;40.50;21.07;;;;;;;;;;5113073;28;20405;-54
2022/03/20 06:31:12;;;;;;;40.03;20.63;;;;;;;;;;5113135;28;20464;-57
2022/03/20 06:33:38;;;;;;;35.93;19.40;;;;;;;;;;5113130;28;20913;-53
2022/03/20 06:36:05;;;;;;;39.50;20.63;;;;;;;;;;5113396;28;20402;-54
2022/03/20 06:38:31;;;;;;;42.93;20.60;;;;;;;;;;5113038;28;20735;-55
2022/03/20 06:40:57;;;;;;;37.80;20.17;;;;;;;;;;5112899;28;20416;-53
2022/03/20 06:43:27;;;;;;;42.93;21.30;;;;;;;;;;5113036;28;20432;-55
2022/03/20 06:45:54;;;;;;;40.50;20.33;;;;;;;;;;5113040;28;20480;-55
2022/03/20 06:48:20;;;;;;;37.70;20.73;;;;;;;;;;5113082;28;20447;-51
2022/03/20 06:50:46;;;;;;;38.17;19.57;;;;;;;;;;5112883;28;20498;-54
2022/03/20 06:53:17;;;;;;;39.07;20.90;;;;;;;;;;5112941;28;20409;-54
2022/03/20 06:55:44;;;;;;;36.87;20.50;;;;;;;;;;5112930;28;20504;-54
2022/03/20 06:58:10;;;;;;;35.17;19.50;;;;;;;;;;5112786;28;20415;-53
2022/03/20 07:00:36;;;;;;;35.23;19.50;;;;;;;;;;5113074;28;20409;-54
2022/03/20 07:03:03;;;;;;;36.10;19.67;;;;;;;;;;5094649;28;20408;-54
2022/03/20 07:05:30;;;;;;;41.47;19.63;;;;;;;;;;5112840;28;20417;-56
2022/03/20 07:07:56;;;;;;;38.00;20.73;;;;;;;;;;5112779;28;20488;-55
2022/03/20 07:10:23;;;;;;;37.07;19.30;;;;;;;;;;5112597;28;20467;-54
2022/03/20 07:13:48;;;;;;;36.33;18.83;;;;;;;;;;5112845;28;20408;-51
2022/03/20 07:15:39;;;;;;;31.60;18.30;;;;;;;;;;5112664;28;20761;-56
2022/03/20 07:18:06;;;;;;;37.43;17.40;;;;;;;;;;5112501;28;20409;-55
2022/03/20 07:20:32;;;;;;;35.63;20.03;;;;;;;;;;5112644;28;20408;-54
2022/03/20 07:23:01;;;;;;;42.80;21.20;;;;;;;;;;5112503;28;20444;-52
2022/03/20 07:30:56;;;;;;;38.23;20.30;;;;;;;;;;5112374;28;20475;-54
2022/03/20 07:33:24;;;;;;;33.93;19.73;;;;;;;;;;5115992;28;20393;-55
2022/03/20 07:35:51;;;;;;;37.10;20.13;;;;;;;;;;5116495;28;20412;-56
2022/03/20 07:38:17;;;;;;;39.63;19.70;;;;;;;;;;5116352;28;20462;-55
2022/03/20 07:40:43;;;;;;;36.73;20.80;;;;;;;;;;5098336;28;20773;-55
2022/03/20 07:43:09;;;;;;;35.77;19.77;;;;;;;;;;5116332;28;20457;-57
2022/03/20 07:45:35;;;;;;;35.03;20.10;;;;;;;;;;5116357;28;20404;-56
2022/03/20 07:48:02;;;;;;;34.77;19.77;;;;;;;;;;5116196;28;20396;-54
2022/03/20 07:50:28;;;;;;;33.90;19.67;;;;;;;;;;5116272;28;20523;-53
2022/03/20 07:52:56;;;;;;;39.00;19.43;;;;;;;;;;5116102;28;20405;-55
2022/03/20 07:55:25;;;;;;;32.20;19.47;;;;;;;;;;5097657;28;20420;-55
2022/03/20 07:57:51;;;;;;;32.90;19.70;;;;;;;;;;5115963;28;20407;-55
2022/03/20 08:00:17;;;;;;;32.30;18.10;;;;;;;;;;5116064;28;20409;-53
2022/03/20 08:02:44;;;;;;;34.63;18.30;;;;;;;;;;5116178;28;20412;-58
2022/03/20 08:05:11;;;;;;;30.77;18.03;;;;;;;;;;5115935;28;20449;-53
2022/03/20 08:07:37;;;;;;;31.03;17.40;;;;;;;;;;5116321;28;20431;-53
2022/03/20 08:10:10;;;;;;;34.47;18.70;;;;;;;;;;5115924;28;20464;-54
2022/03/20 08:12:36;;;;;;;28.83;17.93;;;;;;;;;;5115861;28;20404;-54
2022/03/20 08:15:03;;;;;;;30.10;17.97;;;;;;;;;;5115779;28;20435;-62
2022/03/20 08:17:30;;;;;;;29.53;17.40;;;;;;;;;;5115490;28;20412;-54
2022/03/20 08:19:56;;;;;;;30.60;18.60;;;;;;;;;;5115465;28;20452;-54
2022/03/20 08:22:22;;;;;;;28.30;17.50;;;;;;;;;;5115682;28;20770;-56
2022/03/20 08:24:48;;;;;;;31.43;17.53;;;;;;;;;;5115655;28;20413;-54
2022/03/20 08:27:15;;;;;;;30.67;17.40;;;;;;;;;;5115406;28;20397;-54
2022/03/20 08:29:42;;;;;;;28.23;17.80;;;;;;;;;;5115314;28;20408;-54
2022/03/20 08:32:11;;;;;;;30.67;18.30;;;;;;;;;;5115578;28;20420;-59
2022/03/20 08:34:37;;;;;;;28.10;17.80;;;;;;;;;;5115432;28;20471;-54
2022/03/20 08:37:04;;;;;;;36.43;17.80;;;;;;;;;;5115284;28;20497;-54
2022/03/20 08:39:30;;;;;;;25.80;17.30;;;;;;;;;;5115225;28;20401;-55
2022/03/20 08:41:56;;;;;;;30.63;18.10;;;;;;;;;;5096908;28;20500;-54
2022/03/20 08:44:26;;;;;;;25.40;17.10;;;;;;;;;;5114131;28;20454;-54
2022/03/20 08:46:52;;;;;;;28.83;18.17;;;;;;;;;;5114996;28;20828;-56
2022/03/20 08:49:19;;;;;;;29.10;18.40;;;;;;;;;;5115026;28;20423;-54
2022/03/20 08:51:46;;;;;;;26.27;17.30;;;;;;;;;;5114932;28;21034;-55
2022/03/20 08:54:12;;;;;;;27.70;18.37;;;;;;;;;;5114852;28;20913;-55
2022/03/20 08:56:38;;;;;;;26.47;17.40;;;;;;;;;;5115040;28;20423;-54
2022/03/20 08:59:04;;;;;;;29.30;18.50;;;;;;;;;;5115253;28;20990;-57
2022/03/20 09:01:31;;;;;;;29.30;17.60;;;;;;;;;;5096076;28;20583;-54
2022/03/20 09:03:57;;;;;;;28.00;18.00;;;;;;;;;;5114625;28;20412;-54
2022/03/20 09:06:26;;;;;;;28.90;17.37;;;;;;;;;;5114443;28;20413;-58
2022/03/20 09:08:53;;;;;;;30.33;16.90;;;;;;;;;;5114648;28;20411;-56
2022/03/20 09:11:20;;;;;;;27.60;17.97;;;;;;;;;;5114471;28;20460;-54
2022/03/20 09:13:46;;;;;;;27.97;17.20;;;;;;;;;;5114585;28;20400;-53
2022/03/20 09:19:03;;;;;;;26.97;16.97;;;;;;;;;;5114446;28;20451;-56
2022/03/20 09:21:31;;;;;;;34.60;16.63;;;;;;;;;;5114337;28;20401;-60
2022/03/20 09:23:57;;;;;;;25.07;16.87;;;;;;;;;;5114304;28;20443;-56
2022/03/20 09:26:23;;;;;;;24.57;15.80;;;;;;;;;;5114059;28;20405;-55
2022/03/20 09:28:49;;;;;;;25.50;16.10;;;;;;;;;;5114075;28;20411;-56
2022/03/20 09:31:15;;;;;;;23.77;17.00;;;;;;;;;;5114047;28;20567;-57
2022/03/20 09:33:42;;;;;;;26.07;16.80;;;;;;;;;;5114183;28;20401;-56
2022/03/20 09:36:08;;;;;;;27.00;15.87;;;;;;;;;;5114230;28;20409;-52
2022/03/20 09:38:37;;;;;;;28.80;16.87;;;;;;;;;;5114307;28;20397;-58
2022/03/20 09:41:07;;;;;;;21.77;15.03;;;;;;;;;;5113980;28;20932;-57
2022/03/20 09:43:33;;;;;;;24.30;15.67;;;;;;;;;;5113907;28;20902;-55
2022/03/20 09:46:02;;;;;;;25.33;16.07;;;;;;;;;;5114003;28;20409;-55
2022/03/20 09:48:32;;;;;;;25.43;16.93;;;;;;;;;;5113783;28;20458;-55
2022/03/20 09:50:58;;;;;;;24.10;15.37;;;;;;;;;;5113677;28;20510;-54
2022/03/20 09:53:25;;;;;;;26.27;16.13;;;;;;;;;;5113774;28;20490;-57
2022/03/20 09:55:55;;;;;;;21.60;15.63;;;;;;;;;;5113774;28;20409;-55
2022/03/20 09:58:25;;;;;;;21.70;15.20;;;;;;;;;;5113677;28;20542;-55
2022/03/20 10:00:51;;;;;;;22.60;15.17;;;;;;;;;;5113436;28;20412;-54
2022/03/20 10:03:18;;;;;;;22.00;14.90;;;;;;;;;;5113451;28;20409;-54
2022/03/20 10:05:44;;;;;;;23.57;16.03;;;;;;;;;;5113493;28;20405;-57
2022/03/20 10:08:16;;;;;;;25.17;15.50;;;;;;;;;;5113411;28;20550;-56
2022/03/20 10:10:47;;;;;;;23.27;16.03;;;;;;;;;;5113430;28;20468;-55
2022/03/20 10:13:14;;;;;;;25.70;15.33;;;;;;;;;;5094999;28;20425;-56
2022/03/20 10:15:41;;;;;;;23.33;14.87;;;;;;;;;;5094965;28;20421;-58
2022/03/20 10:18:28;;;;;;;21.97;15.40;;;;;;;;;;5094479;28;20427;-55
2022/03/20 10:20:58;;;;;;;21.13;15.33;;;;;;;;;;5113051;28;20441;-58
2022/03/20 10:23:28;;;;;;;27.13;14.90;;;;;;;;;;5094849;28;20905;-55
2022/03/20 10:25:54;;;;;;;19.87;14.40;;;;;;;;;;5113088;28;20431;-56
2022/03/20 10:28:21;;;;;;;24.37;12.70;;;;;;;;;;5113096;28;20405;-58
2022/03/20 10:30:59;;;;;;;20.53;12.73;;;;;;;;;;5112974;28;20500;-57
2022/03/20 10:33:25;;;;;;;19.70;13.90;;;;;;;;;;5113016;28;20409;-52
2022/03/20 10:36:09;;;;;;;19.07;12.30;;;;;;;;;;5094938;28;20428;-57
2022/03/20 10:38:36;;;;;;;31.17;13.00;;;;;;;;;;5095492;28;20408;-57
2022/03/20 10:41:02;;;;;;;20.87;12.50;;;;;;;;;;5094738;28;20432;-56
2022/03/20 10:43:28;;;;;;;22.00;12.90;;;;;;;;;;5112965;28;20473;-58
2022/03/20 10:46:01;;;;;;;18.83;12.60;;;;;;;;;;5112934;28;20869;-56
2022/03/20 10:48:31;;;;;;;17.30;12.90;;;;;;;;;;5094568;28;20470;-57
2022/03/20 10:50:57;;;;;;;17.27;13.57;;;;;;;;;;5112856;28;20474;-58
2022/03/20 10:53:26;;;;;;;19.00;12.57;;;;;;;;;;5112962;28;20413;-57
2022/03/20 10:56:08;;;;;;;21.53;12.73;;;;;;;;;;5112773;28;20408;-55
2022/03/20 10:58:38;;;;;;;16.00;12.30;;;;;;;;;;5112979;28;20397;-58
2022/03/20 11:01:07;;;;;;;21.43;12.60;;;;;;;;;;5113093;28;20397;-58
2022/03/20 11:03:33;;;;;;;20.30;12.90;;;;;;;;;;5112904;28;20792;-57
2022/03/20 11:05:59;;;;;;;16.07;12.40;;;;;;;;;;5112774;28;20405;-58
2022/03/20 11:08:26;;;;;;;18.00;11.80;;;;;;;;;;5116241;28;20400;-55
2022/03/20 11:10:53;;;;;;;14.57;12.37;;;;;;;;;;5098504;28;20927;-56
2022/03/20 11:13:20;;;;;;;15.30;12.40;;;;;;;;;;5116767;28;20413;-55
2022/03/20 11:15:48;;;;;;;16.30;12.77;;;;;;;;;;5116876;28;20408;-55
2022/03/20 11:18:17;;;;;;;19.93;13.30;;;;;;;;;;5116782;28;22351;-53
2022/03/20 11:20:44;;;;;;;16.30;12.10;;;;;;;;;;5116663;28;20401;-54
2022/03/20 11:23:10;;;;;;;15.50;11.30;;;;;;;;;;5098046;28;20416;-57
2022/03/20 11:25:37;;;;;;;13.90;10.90;;;;;;;;;;5116888;28;20431;-57
2022/03/20 11:28:06;;;;;;;16.00;11.93;;;;;;;;;;5116571;28;20478;-57
2022/03/20 11:30:33;;;;;;;15.07;12.03;;;;;;;;;;5116750;28;20452;-57
2022/03/20 11:33:00;;;;;;;14.90;11.43;;;;;;;;;;5116411;28;20913;-56
2022/03/20 11:35:33;;;;;;;15.50;12.10;;;;;;;;;;5098162;28;20613;-58
2022/03/20 11:38:13;;;;;;;14.50;11.40;;;;;;;;;;5098078;28;20418;-61
2022/03/20 11:40:41;;;;;;;14.67;11.67;;;;;;;;;;5116262;28;20738;-54
2022/03/20 11:43:14;;;;;;;16.40;11.83;;;;;;;;;;5116462;28;20404;-57
2022/03/20 11:45:40;;;;;;;15.03;11.47;;;;;;;;;;5116284;28;20436;-57
2022/03/20 11:48:13;;;;;;;13.50;11.70;;;;;;;;;;5116422;28;20401;-58
2022/03/20 11:50:41;;;;;;;13.93;11.33;;;;;;;;;;5097746;28;21019;-57
2022/03/20 11:53:08;;;;;;;12.00;10.33;;;;;;;;;;5116241;28;20417;-55
2022/03/20 11:55:38;;;;;;;13.97;10.83;;;;;;;;;;5097705;28;20428;-56
2022/03/20 11:58:24;;;;;;;15.00;11.20;;;;;;;;;;5097773;28;20401;-54
2022/03/20 12:01:03;;;;;;;17.53;11.20;;;;;;;;;;5098703;28;20988;-55
2022/03/20 12:03:32;;;;;;;13.43;10.83;;;;;;;;;;5115845;28;20415;-54
2022/03/20 12:06:06;;;;;;;22.47;11.13;;;;;;;;;;5097444;28;20420;-58
2022/03/20 12:08:38;;;;;;;12.27;10.33;;;;;;;;;;5115985;28;20474;-56
2022/03/20 12:11:23;;;;;;;15.43;11.13;;;;;;;;;;5115615;28;20461;-55
2022/03/20 12:13:52;;;;;;;15.60;11.30;;;;;;;;;;5115521;28;20404;-58
2022/03/20 12:16:37;;;;;;;18.80;11.03;;;;;;;;;;5115703;28;20408;-56
2022/03/20 12:19:06;;;;;;;13.83;10.90;;;;;;;;;;5114156;28;20459;-53
2022/03/20 12:21:51;;;;;;;12.60;11.07;;;;;;;;;;5115562;28;20893;-54
2022/03/20 12:24:35;;;;;;;14.73;10.17;;;;;;;;;;5115492;28;20409;-56
2022/03/20 12:27:22;;;;;;;11.23;10.00;;;;;;;;;;5115249;28;20469;-57
2022/03/20 12:29:48;;;;;;;13.40;10.60;;;;;;;;;;5115220;28;20433;-61
2022/03/20 12:32:15;;;;;;;13.60;10.20;;;;;;;;;;5115296;28;21014;-55
2022/03/20 12:34:44;;;;;;;13.00;10.80;;;;;;;;;;5115288;28;20412;-53
2022/03/20 12:37:28;;;;;;;14.80;10.47;;;;;;;;;;5115101;28;20412;-56
2022/03/20 12:39:55;;;;;;;14.83;10.43;;;;;;;;;;5115379;28;20411;-53
2022/03/20 12:42:22;;;;;;;13.87;11.20;;;;;;;;;;5096604;28;20773;-53
2022/03/20 12:44:51;;;;;;;14.70;10.20;;;;;;;;;;5115076;28;20789;-58
2022/03/20 12:47:22;;;;;;;13.63;11.20;;;;;;;;;;5114842;28;20423;-55
2022/03/20 12:49:51;;;;;;;16.70;11.20;;;;;;;;;;5114827;28;20401;-54
2022/03/20 12:52:19;;;;;;;14.03;11.40;;;;;;;;;;5114972;28;20413;-53
2022/03/20 12:54:52;;;;;;;13.80;11.83;;;;;;;;;;5114989;28;20401;-56
2022/03/20 12:57:18;;;;;;;17.00;11.17;;;;;;;;;;5114717;28;20413;-56
2022/03/20 12:59:44;;;;;;;16.67;12.00;;;;;;;;;;5114756;28;20894;-55
2022/03/20 13:02:10;;;;;;;12.53;11.20;;;;;;;;;;5096396;28;20515;-54
2022/03/20 13:04:36;;;;;;;15.00;11.33;;;;;;;;;;5096582;28;20420;-54
2022/03/20 13:07:22;;;;;;;16.60;11.47;;;;;;;;;;5114629;28;20439;-53
2022/03/20 13:09:56;;;;;;;15.80;12.40;;;;;;;;;;5114668;28;20901;-57
2022/03/20 13:12:22;;;;;;;13.43;11.73;;;;;;;;;;5114635;28;20412;-56
2022/03/20 13:14:51;;;;;;;16.90;11.50;;;;;;;;;;5114247;28;20457;-58
2022/03/20 13:17:25;;;;;;;14.37;11.53;;;;;;;;;;5114387;28;20413;-55
2022/03/20 13:19:52;;;;;;;13.90;11.20;;;;;;;;;;5096111;28;20467;-55
2022/03/20 13:22:18;;;;;;;18.40;12.30;;;;;;;;;;5114285;28;20939;-56
2022/03/20 13:24:46;;;;;;;12.57;11.10;;;;;;;;;;5114222;28;20393;-54
2022/03/20 13:27:13;;;;;;;14.30;11.93;;;;;;;;;;5114063;28;20842;-56
2022/03/20 13:29:42;;;;;;;15.30;12.13;;;;;;;;;;5114066;28;20405;-55
2022/03/20 13:32:09;;;;;;;17.33;12.03;;;;;;;;;;5114279;28;20412;-55
2022/03/20 13:34:43;;;;;;;13.90;11.67;;;;;;;;;;5095811;28;20409;-55
2022/03/20 13:37:11;;;;;;;15.33;12.07;;;;;;;;;;5114065;28;20404;-57
2022/03/20 13:39:38;;;;;;;14.00;11.40;;;;;;;;;;5114128;28;20432;-55
2022/03/20 13:42:17;;;;;;;14.33;12.00;;;;;;;;;;5113950;28;20727;-58
2022/03/20 13:44:47;;;;;;;14.43;12.13;;;;;;;;;;5113933;28;20431;-55
2022/03/20 13:47:13;;;;;;;13.47;11.30;;;;;;;;;;5114035;28;20960;-56
2022/03/20 13:49:39;;;;;;;13.20;10.90;;;;;;;;;;5113994;28;20946;-56
2022/03/20 13:52:06;;;;;;;18.40;12.47;;;;;;;;;;5114129;28;20421;-57
2022/03/20 13:54:36;;;;;;;15.50;11.00;;;;;;;;;;5113849;28;20434;-54
2022/03/20 13:57:07;;;;;;;16.10;11.13;;;;;;;;;;5113788;28;20736;-55
2022/03/20 13:59:50;;;;;;;15.03;11.40;;;;;;;;;;5095448;28;20413;-59
2022/03/20 14:02:16;;;;;;;13.40;11.47;;;;;;;;;;5113666;28;20416;-58
2022/03/20 14:04:47;;;;;;;14.40;11.47;;;;;;;;;;5095310;28;20451;-53
2022/03/20 14:07:26;;;;;;;12.80;10.77;;;;;;;;;;5113721;28;20762;-56
2022/03/20 14:09:53;;;;;;;13.80;11.13;;;;;;;;;;5113512;28;20408;-56
2022/03/20 14:12:30;;;;;;;19.83;11.30;;;;;;;;;;5095340;28;20417;-58
2022/03/20 14:14:58;;;;;;;13.83;10.40;;;;;;;;;;5113386;28;20753;-55
2022/03/20 14:17:40;;;;;;;11.63;10.20;;;;;;;;;;5113382;28;20409;-60
2022/03/20 14:20:10;;;;;;;11.90;10.70;;;;;;;;;;5113368;28;20448;-57
2022/03/20 14:22:44;;;;;;;19.40;10.20;;;;;;;;;;5095203;28;20413;-58
2022/03/20 14:25:14;;;;;;;16.20;10.93;;;;;;;;;;5113297;28;20457;-57
2022/03/20 14:27:41;;;;;;;14.13;10.60;;;;;;;;;;5113250;28;20425;-57
2022/03/20 14:39:27;;;;;;;10.80;9.60;;;;;;;;;;5113021;28;20454;-55
2022/03/20 14:41:30;;;;;;;11.10;9.80;;;;;;;;;;5104896;28;20884;-54
2022/03/20 14:44:06;;;;;;;11.87;9.67;;;;;;;;;;5113023;28;20485;-58
2022/03/20 14:46:33;;;;;;;10.53;9.53;;;;;;;;;;5113135;28;20391;-59
2022/03/20 14:48:59;;;;;;;16.33;9.13;;;;;;;;;;5112914;28;20914;-56
2022/03/20 14:51:26;;;;;;;12.57;10.00;;;;;;;;;;5112768;28;20496;-59
2022/03/20 14:53:52;;;;;;;14.00;10.67;;;;;;;;;;5112941;28;20401;-54
2022/03/20 14:56:18;;;;;;;10.67;9.60;;;;;;;;;;5112894;28;20496;-58
2022/03/20 14:58:45;;;;;;;11.60;8.93;;;;;;;;;;5112787;28;20405;-56
2022/03/20 15:01:11;;;;;;;12.77;8.90;;;;;;;;;;5113036;28;20408;-57
2022/03/20 15:03:37;;;;;;;11.87;10.13;;;;;;;;;;5112974;28;20413;-55
2022/03/20 15:06:04;;;;;;;12.00;9.77;;;;;;;;;;5112823;28;20416;-59
2022/03/20 15:11:24;;;;;;;11.37;9.77;;;;;;;;;;5112762;28;20479;-58